createdAt,value
2016-06-13T00:00:15.106Z,998.55
2016-06-13T00:01:15.110Z,998.53
2016-06-13T00:02:15.113Z,998.5
2016-06-13T00:03:15.115Z,998.48
2016-06-13T00:04:15.118Z,998.5
2016-06-13T00:05:15.122Z,998.49
2016-06-13T00:06:15.125Z,998.51
2016-06-13T00:07:15.128Z,998.55
2016-06-13T00:08:16.239Z,998.49
2016-06-13T00:09:15.134Z,998.48
2016-06-13T00:10:15.137Z,998.51
2016-06-13T00:11:15.140Z,998.47
2016-06-13T00:12:15.158Z,998.44
2016-06-13T00:13:15.162Z,998.47
2016-06-13T00:14:15.164Z,998.45
2016-06-13T00:15:15.167Z,998.45
2016-06-13T00:16:15.170Z,998.47
2016-06-13T00:17:15.221Z,998.43
2016-06-13T00:18:15.756Z,998.43
2016-06-13T00:19:15.179Z,998.4
2016-06-13T00:20:15.183Z,998.39
2016-06-13T00:21:15.186Z,998.39
2016-06-13T00:22:15.189Z,998.38
2016-06-13T00:23:15.192Z,998.35
2016-06-13T00:24:15.196Z,998.38
2016-06-13T00:25:15.198Z,998.32
2016-06-13T00:26:15.217Z,998.29
2016-06-13T00:27:15.220Z,998.29
2016-06-13T00:28:16.020Z,998.28
2016-06-13T00:29:15.227Z,998.23
2016-06-13T00:30:15.229Z,998.27
2016-06-13T00:31:15.232Z,998.25
2016-06-13T00:32:15.236Z,998.25
2016-06-13T00:33:15.239Z,998.24
2016-06-13T00:34:15.242Z,998.22
2016-06-13T00:35:15.245Z,998.22
2016-06-13T00:36:15.248Z,998.22
2016-06-13T00:37:15.251Z,998.17
2016-06-13T00:38:15.270Z,998.2
2016-06-13T00:39:16.366Z,998.15
2016-06-13T00:40:15.261Z,998.16
2016-06-13T00:41:15.279Z,998.17
2016-06-13T00:42:15.282Z,998.14
2016-06-13T00:43:15.286Z,998.18
2016-06-13T00:44:15.289Z,998.12
2016-06-13T00:45:15.291Z,998.13
2016-06-13T00:46:15.295Z,998.13
2016-06-13T00:47:15.297Z,998.12
2016-06-13T00:48:15.301Z,998.15
2016-06-13T00:49:15.304Z,998.13
2016-06-13T00:50:16.432Z,998.09
2016-06-13T00:51:15.325Z,998.1
2016-06-13T00:52:15.313Z,998.08
2016-06-13T00:53:15.316Z,998.09
2016-06-13T00:54:15.335Z,998.04
2016-06-13T00:55:15.337Z,998.03
2016-06-13T00:56:15.341Z,998.04
2016-06-13T00:57:15.344Z,998.02
2016-06-13T00:58:15.347Z,998.03
2016-06-13T00:59:15.350Z,997.99
2016-06-13T01:00:15.353Z,997.98
2016-06-13T01:01:15.356Z,997.94
2016-06-13T01:02:15.359Z,997.94
2016-06-13T01:03:15.362Z,997.91
2016-06-13T01:04:15.365Z,997.98
2016-06-13T01:05:15.369Z,997.91
2016-06-13T01:06:15.371Z,997.93
2016-06-13T01:07:15.390Z,997.92
2016-06-13T01:08:15.394Z,997.9
2016-06-13T01:09:15.396Z,997.91
2016-06-13T01:10:15.399Z,997.91
2016-06-13T01:11:15.464Z,997.86
2016-06-13T01:12:15.406Z,997.9
2016-06-13T01:13:15.409Z,997.9
2016-06-13T01:14:15.411Z,997.89
2016-06-13T01:15:15.415Z,997.85
2016-06-13T01:16:15.418Z,997.87
2016-06-13T01:17:15.421Z,997.86
2016-06-13T01:18:15.502Z,997.83
2016-06-13T01:19:15.443Z,997.8
2016-06-13T01:20:15.446Z,997.8
2016-06-13T01:21:15.449Z,997.75
2016-06-13T01:22:15.453Z,997.75
2016-06-13T01:23:15.456Z,997.76
2016-06-13T01:24:15.458Z,997.78
2016-06-13T01:25:15.461Z,997.74
2016-06-13T01:26:15.464Z,997.73
2016-06-13T01:27:15.468Z,997.75
2016-06-13T01:28:15.471Z,997.73
2016-06-13T01:29:15.474Z,997.73
2016-06-13T01:30:15.477Z,997.76
2016-06-13T01:31:15.495Z,997.7
2016-06-13T01:32:15.842Z,997.7
2016-06-13T01:33:15.501Z,997.69
2016-06-13T01:34:15.505Z,997.66
2016-06-13T01:35:15.507Z,997.63
2016-06-13T01:36:15.541Z,997.65
2016-06-13T01:37:15.514Z,997.62
2016-06-13T01:38:15.517Z,997.65
2016-06-13T01:39:15.520Z,997.64
2016-06-13T01:40:15.522Z,997.63
2016-06-13T01:41:15.526Z,997.61
2016-06-13T01:42:15.545Z,997.59
2016-06-13T01:43:16.438Z,997.58
2016-06-13T01:44:15.551Z,997.61
2016-06-13T01:45:15.555Z,997.62
2016-06-13T01:46:15.557Z,997.61
2016-06-13T01:47:15.560Z,997.62
2016-06-13T01:48:15.563Z,997.59
2016-06-13T01:49:15.566Z,997.55
2016-06-13T01:50:15.570Z,997.52
2016-06-13T01:51:15.572Z,997.49
2016-06-13T01:52:15.575Z,997.52
2016-06-13T01:53:15.593Z,997.48
2016-06-13T01:54:15.582Z,997.5
2016-06-13T01:55:15.599Z,997.44
2016-06-13T01:56:15.603Z,997.48
2016-06-13T01:57:15.606Z,997.43
2016-06-13T01:58:15.609Z,997.39
2016-06-13T01:59:15.612Z,997.38
2016-06-13T02:00:15.615Z,997.38
2016-06-13T02:01:15.619Z,997.36
2016-06-13T02:02:15.621Z,997.34
2016-06-13T02:03:15.624Z,997.34
2016-06-13T02:04:15.628Z,997.29
2016-06-13T02:05:15.630Z,997.28
2016-06-13T02:06:15.650Z,997.28
2016-06-13T02:07:15.653Z,997.27
2016-06-13T02:08:15.655Z,997.25
2016-06-13T02:09:15.659Z,997.28
2016-06-13T02:10:15.662Z,997.26
2016-06-13T02:11:15.665Z,997.3
2016-06-13T02:12:15.668Z,997.26
2016-06-13T02:13:15.671Z,997.25
2016-06-13T02:14:15.674Z,997.23
2016-06-13T02:15:15.678Z,997.19
2016-06-13T02:16:15.680Z,997.24
2016-06-13T02:17:15.683Z,997.18
2016-06-13T02:18:15.686Z,997.23
2016-06-13T02:19:15.690Z,997.18
2016-06-13T02:20:15.693Z,997.21
2016-06-13T02:21:15.712Z,997.18
2016-06-13T02:22:15.699Z,997.21
2016-06-13T02:23:15.718Z,997.17
2016-06-13T02:24:15.721Z,997.23
2016-06-13T02:25:15.724Z,997.21
2016-06-13T02:26:15.727Z,997.18
2016-06-13T02:27:15.730Z,997.19
2016-06-13T02:28:15.733Z,997.14
2016-06-13T02:29:15.737Z,997.14
2016-06-13T02:30:15.739Z,997.1
2016-06-13T02:31:15.743Z,997.13
2016-06-13T02:32:15.746Z,997.15
2016-06-13T02:33:15.749Z,997.12
2016-06-13T02:34:15.751Z,997.1
2016-06-13T02:35:15.770Z,997.13
2016-06-13T02:36:15.773Z,997.12
2016-06-13T02:37:15.776Z,997.13
2016-06-13T02:38:15.779Z,997.1
2016-06-13T02:39:15.782Z,997.12
2016-06-13T02:40:15.785Z,997.09
2016-06-13T02:41:15.788Z,997.12
2016-06-13T02:42:15.791Z,997.12
2016-06-13T02:43:15.795Z,997.14
2016-06-13T02:44:15.798Z,997.12
2016-06-13T02:45:15.800Z,997.12
2016-06-13T02:46:15.804Z,997.09
2016-06-13T02:47:15.807Z,997.11
2016-06-13T02:48:15.826Z,997.06
2016-06-13T02:49:15.828Z,997.07
2016-06-13T02:50:15.831Z,997.07
2016-06-13T02:51:15.835Z,997.1
2016-06-13T02:52:15.838Z,997.09
2016-06-13T02:53:15.841Z,997.04
2016-06-13T02:54:15.844Z,997.05
2016-06-13T02:55:15.848Z,996.99
2016-06-13T02:56:15.866Z,996.99
2016-06-13T02:57:15.853Z,997.01
2016-06-13T02:58:15.857Z,996.98
2016-06-13T02:59:15.860Z,996.96
2016-06-13T03:00:15.863Z,996.96
2016-06-13T03:01:15.865Z,996.94
2016-06-13T03:02:16.275Z,996.91
2016-06-13T03:03:15.888Z,996.96
2016-06-13T03:04:15.875Z,996.95
2016-06-13T03:05:15.894Z,996.94
2016-06-13T03:06:15.897Z,996.89
2016-06-13T03:07:15.900Z,996.92
2016-06-13T03:08:15.904Z,996.9
2016-06-13T03:09:15.906Z,996.92
2016-06-13T03:10:15.909Z,996.91
2016-06-13T03:11:15.928Z,996.89
2016-06-13T03:12:15.916Z,996.9
2016-06-13T03:13:16.621Z,996.91
2016-06-13T03:14:15.922Z,996.88
2016-06-13T03:15:15.925Z,996.88
2016-06-13T03:16:15.927Z,996.86
2016-06-13T03:17:15.931Z,996.83
2016-06-13T03:18:15.949Z,996.84
2016-06-13T03:19:15.952Z,996.82
2016-06-13T03:20:15.955Z,996.84
2016-06-13T03:21:15.959Z,996.82
2016-06-13T03:22:15.961Z,996.81
2016-06-13T03:23:15.964Z,996.79
2016-06-13T03:24:17.092Z,996.77
2016-06-13T03:25:15.971Z,996.77
2016-06-13T03:26:16.801Z,996.76
2016-06-13T03:27:15.998Z,996.79
2016-06-13T03:28:16.058Z,996.74
2016-06-13T03:29:16.101Z,996.74
2016-06-13T03:30:16.145Z,996.69
2016-06-13T03:31:16.188Z,996.69
2016-06-13T03:32:16.233Z,996.68
2016-06-13T03:33:16.234Z,996.67
2016-06-13T03:34:16.252Z,996.61
2016-06-13T03:35:16.269Z,996.65
2016-06-13T03:36:16.287Z,996.62
2016-06-13T03:37:16.299Z,996.59
2016-06-13T03:38:16.307Z,996.61
2016-06-13T03:39:16.331Z,996.57
2016-06-13T03:40:16.339Z,996.6
2016-06-13T03:41:16.348Z,996.58
2016-06-13T03:42:16.479Z,996.54
2016-06-13T03:43:16.359Z,996.56
2016-06-13T03:44:16.458Z,996.55
2016-06-13T03:45:16.369Z,996.57
2016-06-13T03:46:16.374Z,996.55
2016-06-13T03:47:16.379Z,996.53
2016-06-13T03:48:16.383Z,996.55
2016-06-13T03:49:16.386Z,996.51
2016-06-13T03:50:16.390Z,996.53
2016-06-13T03:51:16.394Z,996.54
2016-06-13T03:52:16.398Z,996.57
2016-06-13T03:53:16.416Z,996.56
2016-06-13T03:54:16.420Z,996.54
2016-06-13T03:55:16.719Z,996.52
2016-06-13T03:56:16.426Z,996.53
2016-06-13T03:57:16.492Z,996.49
2016-06-13T03:58:16.432Z,996.54
2016-06-13T03:59:16.482Z,996.49
2016-06-13T04:00:16.438Z,996.51
2016-06-13T04:01:16.488Z,996.48
2016-06-13T04:02:16.444Z,996.44
2016-06-13T04:03:16.448Z,996.47
2016-06-13T04:04:16.450Z,996.43
2016-06-13T04:05:16.470Z,996.41
2016-06-13T04:06:17.159Z,996.44
2016-06-13T04:07:16.476Z,996.44
2016-06-13T04:08:16.479Z,996.44
2016-06-13T04:09:16.481Z,996.42
2016-06-13T04:10:16.485Z,996.44
2016-06-13T04:11:17.363Z,996.43
2016-06-13T04:12:16.491Z,996.43
2016-06-13T04:13:16.494Z,996.39
2016-06-13T04:14:16.497Z,996.45
2016-06-13T04:15:16.500Z,996.43
2016-06-13T04:16:16.504Z,996.41
2016-06-13T04:17:17.521Z,996.42
2016-06-13T04:18:16.524Z,996.38
2016-06-13T04:19:16.513Z,996.4
2016-06-13T04:20:16.531Z,996.39
2016-06-13T04:21:16.533Z,996.35
2016-06-13T04:22:16.536Z,996.33
2016-06-13T04:23:16.539Z,996.33
2016-06-13T04:24:16.543Z,996.32
2016-06-13T04:25:16.546Z,996.31
2016-06-13T04:26:16.548Z,996.28
2016-06-13T04:27:16.552Z,996.25
2016-06-13T04:28:16.555Z,996.27
2016-06-13T04:29:16.558Z,996.28
2016-06-13T04:30:16.561Z,996.23
2016-06-13T04:31:16.581Z,996.21
2016-06-13T04:32:16.583Z,996.22
2016-06-13T04:33:16.586Z,996.22
2016-06-13T04:34:16.589Z,996.22
2016-06-13T04:35:16.592Z,996.19
2016-06-13T04:36:16.596Z,996.22
2016-06-13T04:37:16.598Z,996.23
2016-06-13T04:38:16.602Z,996.21
2016-06-13T04:39:16.605Z,996.27
2016-06-13T04:40:16.608Z,996.27
2016-06-13T04:41:16.611Z,996.21
2016-06-13T04:42:16.614Z,996.22
2016-06-13T04:43:16.633Z,996.16
2016-06-13T04:44:16.637Z,996.15
2016-06-13T04:45:16.639Z,996.19
2016-06-13T04:46:16.642Z,996.18
2016-06-13T04:47:16.646Z,996.17
2016-06-13T04:48:16.648Z,996.19
2016-06-13T04:49:16.651Z,996.16
2016-06-13T04:50:16.654Z,996.15
2016-06-13T04:51:16.658Z,996.12
2016-06-13T04:52:16.661Z,996.09
2016-06-13T04:53:16.664Z,996.11
2016-06-13T04:54:16.667Z,996.1
2016-06-13T04:55:16.670Z,996.12
2016-06-13T04:56:16.673Z,996.1
2016-06-13T04:57:16.802Z,996.12
2016-06-13T04:58:16.695Z,996.13
2016-06-13T04:59:16.697Z,996.14
2016-06-13T05:00:16.700Z,996.16
2016-06-13T05:01:16.704Z,996.14
2016-06-13T05:02:16.754Z,996.14
2016-06-13T05:03:16.710Z,996.1
2016-06-13T05:04:16.713Z,996.13
2016-06-13T05:05:16.731Z,996.14
2016-06-13T05:06:16.719Z,996.18
2016-06-13T05:07:16.738Z,996.16
2016-06-13T05:08:16.741Z,996.14
2016-06-13T05:09:16.744Z,996.14
2016-06-13T05:10:16.747Z,996.1
2016-06-13T05:11:16.750Z,996.14
2016-06-13T05:12:16.753Z,996.1
2016-06-13T05:13:16.771Z,996.09
2016-06-13T05:14:16.760Z,996.1
2016-06-13T05:15:16.763Z,996.08
2016-06-13T05:16:16.780Z,996.06
2016-06-13T05:17:16.784Z,996.07
2016-06-13T05:18:16.787Z,996.07
2016-06-13T05:19:16.790Z,996.09
2016-06-13T05:20:16.793Z,996.08
2016-06-13T05:21:16.796Z,996.1
2016-06-13T05:22:16.799Z,996.06
2016-06-13T05:23:16.802Z,996.08
2016-06-13T05:24:16.805Z,996.07
2016-06-13T05:25:16.808Z,996.11
2016-06-13T05:26:16.812Z,996.1
2016-06-13T05:27:16.815Z,996.09
2016-06-13T05:28:16.833Z,996.06
2016-06-13T05:29:16.836Z,996.08
2016-06-13T05:30:16.840Z,996.06
2016-06-13T05:31:16.843Z,996.08
2016-06-13T05:32:16.846Z,996.08
2016-06-13T05:33:16.849Z,996.08
2016-06-13T05:34:16.852Z,996.07
2016-06-13T05:35:16.855Z,996.04
2016-06-13T05:36:17.421Z,996.05
2016-06-13T05:37:16.877Z,996.05
2016-06-13T05:38:16.880Z,996.04
2016-06-13T05:39:16.883Z,996.04
2016-06-13T05:40:16.886Z,996.01
2016-06-13T05:41:16.889Z,996.01
2016-06-13T05:42:16.893Z,996.01
2016-06-13T05:43:16.896Z,995.99
2016-06-13T05:44:16.899Z,995.99
2016-06-13T05:45:16.902Z,996.02
2016-06-13T05:46:16.905Z,995.97
2016-06-13T05:47:17.892Z,995.94
2016-06-13T05:48:16.926Z,995.93
2016-06-13T05:49:16.929Z,995.95
2016-06-13T05:50:16.932Z,995.95
2016-06-13T05:51:16.935Z,995.97
2016-06-13T05:52:16.938Z,996
2016-06-13T05:53:16.941Z,995.98
2016-06-13T05:54:16.945Z,995.98
2016-06-13T05:55:16.964Z,995.94
2016-06-13T05:56:16.966Z,995.95
2016-06-13T05:57:16.970Z,995.94
2016-06-13T05:58:16.973Z,995.9
2016-06-13T05:59:16.976Z,995.91
2016-06-13T06:00:16.979Z,995.92
2016-06-13T06:01:16.981Z,995.91
2016-06-13T06:02:16.985Z,995.93
2016-06-13T06:03:17.050Z,995.95
2016-06-13T06:04:17.007Z,995.98
2016-06-13T06:05:17.010Z,996.03
2016-06-13T06:06:17.014Z,995.99
2016-06-13T06:07:17.109Z,996
2016-06-13T06:08:17.019Z,996
2016-06-13T06:09:17.022Z,996.01
2016-06-13T06:10:18.135Z,996
2016-06-13T06:11:17.044Z,996.01
2016-06-13T06:12:17.546Z,995.96
2016-06-13T06:13:17.050Z,995.95
2016-06-13T06:14:17.053Z,996
2016-06-13T06:15:17.056Z,995.95
2016-06-13T06:16:17.059Z,996.01
2016-06-13T06:17:17.062Z,995.95
2016-06-13T06:18:17.378Z,995.97
2016-06-13T06:19:17.084Z,996.01
2016-06-13T06:20:17.087Z,996.02
2016-06-13T06:21:17.090Z,995.99
2016-06-13T06:22:17.093Z,995.99
2016-06-13T06:23:17.097Z,996.01
2016-06-13T06:24:17.100Z,995.93
2016-06-13T06:25:17.102Z,995.96
2016-06-13T06:26:17.106Z,995.95
2016-06-13T06:27:17.109Z,995.96
2016-06-13T06:28:17.112Z,995.94
2016-06-13T06:29:17.974Z,995.97
2016-06-13T06:30:17.133Z,995.98
2016-06-13T06:31:17.136Z,995.95
2016-06-13T06:32:17.139Z,996.01
2016-06-13T06:33:17.142Z,996
2016-06-13T06:34:17.146Z,996
2016-06-13T06:35:17.149Z,996
2016-06-13T06:36:17.152Z,995.99
2016-06-13T06:37:17.154Z,995.97
2016-06-13T06:38:17.173Z,995.99
2016-06-13T06:39:17.177Z,995.99
2016-06-13T06:40:18.274Z,996
2016-06-13T06:41:17.183Z,996
2016-06-13T06:42:17.452Z,995.98
2016-06-13T06:43:17.189Z,996.01
2016-06-13T06:44:17.192Z,996.01
2016-06-13T06:45:17.195Z,996.03
2016-06-13T06:46:17.198Z,996.06
2016-06-13T06:47:17.202Z,996.03
2016-06-13T06:48:17.220Z,996.05
2016-06-13T06:49:17.224Z,996.05
2016-06-13T06:50:17.226Z,996.02
2016-06-13T06:51:17.230Z,996.02
2016-06-13T06:52:17.233Z,996.05
2016-06-13T06:53:17.236Z,996.02
2016-06-13T06:54:17.239Z,996.03
2016-06-13T06:55:17.241Z,996.04
2016-06-13T06:56:17.245Z,995.99
2016-06-13T06:57:17.716Z,995.98
2016-06-13T06:58:17.251Z,995.98
2016-06-13T06:59:17.254Z,995.94
2016-06-13T07:00:17.319Z,995.95
2016-06-13T07:01:17.276Z,995.96
2016-06-13T07:02:17.278Z,995.98
2016-06-13T07:03:17.281Z,995.93
2016-06-13T07:04:17.285Z,995.99
2016-06-13T07:05:17.288Z,995.97
2016-06-13T07:06:17.291Z,995.95
2016-06-13T07:07:17.294Z,995.96
2016-06-13T07:08:17.297Z,995.93
2016-06-13T07:09:17.300Z,995.91
2016-06-13T07:10:17.303Z,995.94
2016-06-13T07:11:17.666Z,995.92
2016-06-13T07:12:17.325Z,995.93
2016-06-13T07:13:17.328Z,995.94
2016-06-13T07:14:17.332Z,995.91
2016-06-13T07:15:17.334Z,995.91
2016-06-13T07:16:17.338Z,995.92
2016-06-13T07:17:17.341Z,995.88
2016-06-13T07:18:17.344Z,995.89
2016-06-13T07:19:17.347Z,995.89
2016-06-13T07:20:17.365Z,995.9
2016-06-13T07:21:17.369Z,995.87
2016-06-13T07:22:18.122Z,995.88
2016-06-13T07:23:17.375Z,995.85
2016-06-13T07:24:17.378Z,995.84
2016-06-13T07:25:17.382Z,995.85
2016-06-13T07:26:17.384Z,995.85
2016-06-13T07:27:17.387Z,995.81
2016-06-13T07:28:17.422Z,995.84
2016-06-13T07:29:17.394Z,995.84
2016-06-13T07:30:17.396Z,995.86
2016-06-13T07:31:17.399Z,995.84
2016-06-13T07:32:17.402Z,995.86
2016-06-13T07:33:18.531Z,995.82
2016-06-13T07:34:17.423Z,995.83
2016-06-13T07:35:17.427Z,995.85
2016-06-13T07:36:17.430Z,995.83
2016-06-13T07:37:17.433Z,995.87
2016-06-13T07:38:17.436Z,995.86
2016-06-13T07:39:17.439Z,995.86
2016-06-13T07:40:17.442Z,995.85
2016-06-13T07:41:17.446Z,995.8
2016-06-13T07:42:17.448Z,995.8
2016-06-13T07:43:17.452Z,995.82
2016-06-13T07:44:17.455Z,995.77
2016-06-13T07:45:17.457Z,995.77
2016-06-13T07:46:17.460Z,995.78
2016-06-13T07:47:17.464Z,995.79
2016-06-13T07:48:17.467Z,995.8
2016-06-13T07:49:17.470Z,995.78
2016-06-13T07:50:17.473Z,995.77
2016-06-13T07:51:17.492Z,995.79
2016-06-13T07:52:17.495Z,995.74
2016-06-13T07:53:17.499Z,995.76
2016-06-13T07:54:17.501Z,995.8
2016-06-13T07:55:17.504Z,995.75
2016-06-13T07:56:17.508Z,995.77
2016-06-13T07:57:17.605Z,995.76
2016-06-13T07:58:17.513Z,995.76
2016-06-13T07:59:17.517Z,995.76
2016-06-13T08:00:17.520Z,995.8
2016-06-13T08:01:17.538Z,995.74
2016-06-13T08:02:17.526Z,995.72
2016-06-13T08:03:17.576Z,995.75
2016-06-13T08:04:17.532Z,995.75
2016-06-13T08:05:17.550Z,995.79
2016-06-13T08:06:17.538Z,995.76
2016-06-13T08:07:17.556Z,995.79
2016-06-13T08:08:17.559Z,995.77
2016-06-13T08:09:17.563Z,995.81
2016-06-13T08:10:17.565Z,995.78
2016-06-13T08:11:17.568Z,995.79
2016-06-13T08:12:17.572Z,995.79
2016-06-13T08:13:17.575Z,995.77
2016-06-13T08:14:17.577Z,995.79
2016-06-13T08:15:17.597Z,995.78
2016-06-13T08:16:17.583Z,995.78
2016-06-13T08:17:17.603Z,995.8
2016-06-13T08:18:17.606Z,995.81
2016-06-13T08:19:17.812Z,995.81
2016-06-13T08:20:17.612Z,995.79
2016-06-13T08:21:17.632Z,995.82
2016-06-13T08:22:17.618Z,995.83
2016-06-13T08:23:17.622Z,995.82
2016-06-13T08:24:17.640Z,995.83
2016-06-13T08:25:17.627Z,995.85
2016-06-13T08:26:17.631Z,995.82
2016-06-13T08:27:18.040Z,995.79
2016-06-13T08:28:18.214Z,995.8
2016-06-13T08:29:17.656Z,995.78
2016-06-13T08:30:18.315Z,995.75
2016-06-13T08:31:17.662Z,995.72
2016-06-13T08:32:17.665Z,995.73
2016-06-13T08:33:17.668Z,995.69
2016-06-13T08:34:17.671Z,995.67
2016-06-13T08:35:17.689Z,995.72
2016-06-13T08:36:17.693Z,995.7
2016-06-13T08:37:17.696Z,995.67
2016-06-13T08:38:17.699Z,995.68
2016-06-13T08:39:17.701Z,995.64
2016-06-13T08:40:17.705Z,995.65
2016-06-13T08:41:18.849Z,995.65
2016-06-13T08:42:18.148Z,995.64
2016-06-13T08:43:17.730Z,995.61
2016-06-13T08:44:17.733Z,995.58
2016-06-13T08:45:17.736Z,995.61
2016-06-13T08:46:17.739Z,995.6
2016-06-13T08:47:17.742Z,995.59
2016-06-13T08:48:17.745Z,995.63
2016-06-13T08:49:17.749Z,995.56
2016-06-13T08:50:17.751Z,995.59
2016-06-13T08:51:17.754Z,995.58
2016-06-13T08:52:17.774Z,995.55
2016-06-13T08:53:17.777Z,995.5
2016-06-13T08:54:17.779Z,995.48
2016-06-13T08:55:17.783Z,995.5
2016-06-13T08:56:17.786Z,995.48
2016-06-13T08:57:17.789Z,995.48
2016-06-13T08:58:17.807Z,995.45
2016-06-13T08:59:17.810Z,995.45
2016-06-13T09:00:17.813Z,995.46
2016-06-13T09:01:17.973Z,995.44
2016-06-13T09:02:17.819Z,995.48
2016-06-13T09:03:17.822Z,995.47
2016-06-13T09:04:17.841Z,995.49
2016-06-13T09:05:17.829Z,995.46
2016-06-13T09:06:17.894Z,995.48
2016-06-13T09:07:17.851Z,995.42
2016-06-13T09:08:17.854Z,995.41
2016-06-13T09:09:17.857Z,995.41
2016-06-13T09:10:17.860Z,995.43
2016-06-13T09:11:17.862Z,995.4
2016-06-13T09:12:18.569Z,995.42
2016-06-13T09:13:17.869Z,995.41
2016-06-13T09:14:17.887Z,995.39
2016-06-13T09:15:17.890Z,995.38
2016-06-13T09:16:17.894Z,995.34
2016-06-13T09:17:17.896Z,995.36
2016-06-13T09:18:17.899Z,995.4
2016-06-13T09:19:17.903Z,995.36
2016-06-13T09:20:17.922Z,995.35
2016-06-13T09:21:17.908Z,995.34
2016-06-13T09:22:17.928Z,995.29
2016-06-13T09:23:18.931Z,995.33
2016-06-13T09:24:17.933Z,995.3
2016-06-13T09:25:17.937Z,995.29
2016-06-13T09:26:17.940Z,995.3
2016-06-13T09:27:17.959Z,995.3
2016-06-13T09:28:17.962Z,995.29
2016-06-13T09:29:17.966Z,995.28
2016-06-13T09:30:17.968Z,995.24
2016-06-13T09:31:17.971Z,995.22
2016-06-13T09:32:17.975Z,995.29
2016-06-13T09:33:17.978Z,995.2
2016-06-13T09:34:17.981Z,995.25
2016-06-13T09:35:17.999Z,995.23
2016-06-13T09:36:18.001Z,995.22
2016-06-13T09:37:18.005Z,995.24
2016-06-13T09:38:18.008Z,995.22
2016-06-13T09:39:18.011Z,995.21
2016-06-13T09:40:18.030Z,995.28
2016-06-13T09:41:18.033Z,995.25
2016-06-13T09:42:18.036Z,995.26
2016-06-13T09:43:18.040Z,995.25
2016-06-13T09:44:18.043Z,995.19
2016-06-13T09:45:18.061Z,995.28
2016-06-13T09:46:18.064Z,995.25
2016-06-13T09:47:18.068Z,995.29
2016-06-13T09:48:18.071Z,995.27
2016-06-13T09:49:18.073Z,995.27
2016-06-13T09:50:18.077Z,995.3
2016-06-13T09:51:18.080Z,995.32
2016-06-13T09:52:18.098Z,995.34
2016-06-13T09:53:18.101Z,995.33
2016-06-13T09:54:18.104Z,995.29
2016-06-13T09:55:18.108Z,995.28
2016-06-13T09:56:18.110Z,995.3
2016-06-13T09:57:18.113Z,995.29
2016-06-13T09:58:18.117Z,995.31
2016-06-13T09:59:18.135Z,995.35
2016-06-13T10:00:18.138Z,995.31
2016-06-13T10:01:18.141Z,995.27
2016-06-13T10:02:18.145Z,995.31
2016-06-13T10:03:18.148Z,995.28
2016-06-13T10:04:18.165Z,995.25
2016-06-13T10:05:18.169Z,995.23
2016-06-13T10:06:18.172Z,995.2
2016-06-13T10:07:18.175Z,995.24
2016-06-13T10:08:18.178Z,995.23
2016-06-13T10:09:18.182Z,995.24
2016-06-13T10:10:18.184Z,995.23
2016-06-13T10:11:18.187Z,995.23
2016-06-13T10:12:18.254Z,995.19
2016-06-13T10:13:18.210Z,995.2
2016-06-13T10:14:18.212Z,995.22
2016-06-13T10:15:18.215Z,995.23
2016-06-13T10:16:18.219Z,995.2
2016-06-13T10:17:18.222Z,995.16
2016-06-13T10:18:18.241Z,995.23
2016-06-13T10:19:18.243Z,995.19
2016-06-13T10:20:18.387Z,995.25
2016-06-13T10:21:18.250Z,995.2
2016-06-13T10:22:18.253Z,995.2
2016-06-13T10:23:18.256Z,995.21
2016-06-13T10:24:18.275Z,995.18
2016-06-13T10:25:18.262Z,995.18
2016-06-13T10:26:18.280Z,995.17
2016-06-13T10:27:18.283Z,995.15
2016-06-13T10:28:18.287Z,995.17
2016-06-13T10:29:18.290Z,995.11
2016-06-13T10:30:18.292Z,995.16
2016-06-13T10:31:18.296Z,995.19
2016-06-13T10:32:18.299Z,995.19
2016-06-13T10:33:18.302Z,995.16
2016-06-13T10:34:18.321Z,995.16
2016-06-13T10:35:18.325Z,995.16
2016-06-13T10:36:18.327Z,995.17
2016-06-13T10:37:18.330Z,995.16
2016-06-13T10:38:18.333Z,995.2
2016-06-13T10:39:18.336Z,995.14
2016-06-13T10:40:18.401Z,995.18
2016-06-13T10:41:18.359Z,995.17
2016-06-13T10:42:18.362Z,995.16
2016-06-13T10:43:18.365Z,995.2
2016-06-13T10:44:18.367Z,995.21
2016-06-13T10:45:18.371Z,995.19
2016-06-13T10:46:18.374Z,995.18
2016-06-13T10:47:18.377Z,995.2
2016-06-13T10:48:18.380Z,995.22
2016-06-13T10:49:18.383Z,995.19
2016-06-13T10:50:18.401Z,995.18
2016-06-13T10:51:18.404Z,995.19
2016-06-13T10:52:18.407Z,995.14
2016-06-13T10:53:18.410Z,995.14
2016-06-13T10:54:18.413Z,995.15
2016-06-13T10:55:18.417Z,995.15
2016-06-13T10:56:18.420Z,995.15
2016-06-13T10:57:18.423Z,995.19
2016-06-13T10:58:18.770Z,995.16
2016-06-13T10:59:18.445Z,995.14
2016-06-13T11:00:18.448Z,995.18
2016-06-13T11:01:18.451Z,995.16
2016-06-13T11:02:18.454Z,995.18
2016-06-13T11:03:18.457Z,995.13
2016-06-13T11:04:18.460Z,995.17
2016-06-13T11:05:18.463Z,995.14
2016-06-13T11:06:18.482Z,995.17
2016-06-13T11:07:18.485Z,995.14
2016-06-13T11:08:18.488Z,995.12
2016-06-13T11:09:18.491Z,995.16
2016-06-13T11:10:18.494Z,995.12
2016-06-13T11:11:18.497Z,995.07
2016-06-13T11:12:18.500Z,995.07
2016-06-13T11:13:18.566Z,995.09
2016-06-13T11:14:18.522Z,995.06
2016-06-13T11:15:18.525Z,995.07
2016-06-13T11:16:18.528Z,995.07
2016-06-13T11:17:18.531Z,995.05
2016-06-13T11:18:18.534Z,995.07
2016-06-13T11:19:18.537Z,995.04
2016-06-13T11:20:18.557Z,995.05
2016-06-13T11:21:18.544Z,995.05
2016-06-13T11:22:18.547Z,995.09
2016-06-13T11:23:18.565Z,995.06
2016-06-13T11:24:18.569Z,995.08
2016-06-13T11:25:18.572Z,995.07
2016-06-13T11:26:19.481Z,995.06
2016-06-13T11:27:18.578Z,995.06
2016-06-13T11:28:18.581Z,995.03
2016-06-13T11:29:18.584Z,995.02
2016-06-13T11:30:22.134Z,995.01
2016-06-13T11:31:18.605Z,994.95
2016-06-13T11:32:18.608Z,994.99
2016-06-13T11:33:18.611Z,994.99
2016-06-13T11:34:18.615Z,994.98
2016-06-13T11:35:18.618Z,994.95
2016-06-13T11:36:18.637Z,994.97
2016-06-13T11:37:18.624Z,994.94
2016-06-13T11:38:18.643Z,994.9
2016-06-13T11:39:18.646Z,994.91
2016-06-13T11:40:18.649Z,994.92
2016-06-13T11:41:18.652Z,994.82
2016-06-13T11:42:18.655Z,994.84
2016-06-13T11:43:19.095Z,994.83
2016-06-13T11:44:18.678Z,994.77
2016-06-13T11:45:18.681Z,994.78
2016-06-13T11:46:18.683Z,994.74
2016-06-13T11:47:18.686Z,994.79
2016-06-13T11:48:18.689Z,994.78
2016-06-13T11:49:18.707Z,994.78
2016-06-13T11:50:18.695Z,994.78
2016-06-13T11:51:18.714Z,994.79
2016-06-13T11:52:18.717Z,994.75
2016-06-13T11:53:18.720Z,994.73
2016-06-13T11:54:18.723Z,994.75
2016-06-13T11:55:18.742Z,994.72
2016-06-13T11:56:18.729Z,994.73
2016-06-13T11:57:18.749Z,994.76
2016-06-13T11:58:18.751Z,994.75
2016-06-13T11:59:19.285Z,994.71
2016-06-13T12:00:18.757Z,994.68
2016-06-13T12:01:18.917Z,994.66
2016-06-13T12:02:18.764Z,994.64
2016-06-13T12:03:18.781Z,994.61
2016-06-13T12:04:18.785Z,994.6
2016-06-13T12:05:18.787Z,994.62
2016-06-13T12:06:18.790Z,994.58
2016-06-13T12:07:18.794Z,994.59
2016-06-13T12:08:18.797Z,994.54
2016-06-13T12:09:18.816Z,994.49
2016-06-13T12:10:18.819Z,994.46
2016-06-13T12:11:18.822Z,994.42
2016-06-13T12:12:18.825Z,994.47
2016-06-13T12:13:18.828Z,994.39
2016-06-13T12:14:18.894Z,994.42
2016-06-13T12:15:18.944Z,994.42
2016-06-13T12:16:18.853Z,994.41
2016-06-13T12:17:18.856Z,994.38
2016-06-13T12:18:18.860Z,994.39
2016-06-13T12:19:18.863Z,994.37
2016-06-13T12:20:18.866Z,994.33
2016-06-13T12:21:18.869Z,994.38
2016-06-13T12:22:18.887Z,994.36
2016-06-13T12:23:18.890Z,994.35
2016-06-13T12:24:18.893Z,994.32
2016-06-13T12:25:18.913Z,994.29
2016-06-13T12:26:18.899Z,994.29
2016-06-13T12:27:18.902Z,994.29
2016-06-13T12:28:19.453Z,994.25
2016-06-13T12:29:18.925Z,994.23
2016-06-13T12:30:18.928Z,994.2
2016-06-13T12:31:18.930Z,994.16